createdAt,value
2022-08-27T00:02:02.164Z,6.57
2022-08-27T00:04:30.233Z,8.32
2022-08-27T00:06:58.363Z,9.07
2022-08-27T00:09:27.588Z,7.90
2022-08-27T00:11:57.730Z,10.52
2022-08-27T00:14:28.184Z,8.20
2022-08-27T00:16:57.506Z,12.93
2022-08-27T00:19:25.311Z,9.68
2022-08-27T00:21:52.741Z,7.32
2022-08-27T00:24:20.311Z,7.97
2022-08-27T00:26:48.868Z,8.15
2022-08-27T00:29:17.880Z,9.05
2022-08-27T00:31:45.520Z,8.02
2022-08-27T00:34:20.720Z,7.90
2022-08-27T00:36:48.951Z,8.25
2022-08-27T00:39:16.546Z,9.98
2022-08-27T00:41:43.904Z,9.25
2022-08-27T00:44:12.801Z,11.15
2022-08-27T00:46:51.199Z,7.47
2022-08-27T00:49:42.709Z,8.07
2022-08-27T00:52:34.540Z,6.55
2022-08-27T00:55:16.610Z,11.88
2022-08-27T00:57:47.476Z,10.38
2022-08-27T01:00:19.460Z,8.02
2022-08-27T01:02:48.543Z,10.52
2022-08-27T01:05:22.051Z,7.85
2022-08-27T01:07:55.900Z,8.10
2022-08-27T01:10:28.939Z,9.57
2022-08-27T01:12:57.657Z,13.07
2022-08-27T01:15:29.195Z,6.65
2022-08-27T01:17:59.701Z,9.90
2022-08-27T01:20:49.138Z,9.77
2022-08-27T01:23:53.925Z,7.22
2022-08-27T01:26:23.297Z,7.35
2022-08-27T01:28:52.102Z,8.68
2022-08-27T01:31:20.036Z,9.38
2022-08-27T01:34:00.446Z,7.40
2022-08-27T01:36:28.778Z,11.27
2022-08-27T01:38:57.391Z,9.30
2022-08-27T01:41:26.369Z,9.30
2022-08-27T01:43:54.164Z,9.15
2022-08-27T01:46:40.822Z,7.32
2022-08-27T01:49:10.946Z,9.70
2022-08-27T01:51:38.458Z,12.50
2022-08-27T01:54:06.474Z,9.77
2022-08-27T01:56:33.817Z,8.52
2022-08-27T01:59:01.396Z,12.77
2022-08-27T02:01:28.744Z,10.10
2022-08-27T02:03:56.346Z,8.55
2022-08-27T02:06:23.955Z,9.77
2022-08-27T02:08:51.329Z,7.95
2022-08-27T02:11:18.668Z,6.43
2022-08-27T02:13:46.303Z,7.97
2022-08-27T02:16:14.221Z,9.27
2022-08-27T02:18:41.980Z,8.65
2022-08-27T02:21:10.704Z,8.88
2022-08-27T02:23:38.179Z,8.77
2022-08-27T02:26:05.660Z,7.70
2022-08-27T02:28:35.340Z,7.93
2022-08-27T02:31:03.590Z,8.02
2022-08-27T02:33:33.198Z,9.63
2022-08-27T02:36:00.775Z,8.35
2022-08-27T02:38:30.000Z,7.32
2022-08-27T02:40:57.554Z,8.52
2022-08-27T02:43:25.696Z,9.23
2022-08-27T02:45:55.588Z,12.00
2022-08-27T02:48:24.784Z,11.45
2022-08-27T02:50:53.161Z,7.85
2022-08-27T02:53:21.434Z,8.25
2022-08-27T02:55:52.402Z,7.32
2022-08-27T02:58:19.983Z,7.72
2022-08-27T03:00:48.474Z,7.13
2022-08-27T03:03:15.977Z,8.05
2022-08-27T03:05:44.085Z,6.40
2022-08-27T03:08:12.072Z,8.27
2022-08-27T03:10:40.338Z,9.02
2022-08-27T03:13:07.890Z,11.45
2022-08-27T03:15:35.767Z,9.20
2022-08-27T03:18:18.874Z,7.00
2022-08-27T03:20:57.011Z,7.93
2022-08-27T03:23:27.405Z,8.82
2022-08-27T03:25:59.638Z,9.40
2022-08-27T03:28:34.465Z,8.35
2022-08-27T03:31:07.239Z,9.45
2022-08-27T03:33:40.289Z,7.35
2022-08-27T03:36:09.595Z,6.45
2022-08-27T03:38:38.176Z,7.07
2022-08-27T03:41:06.573Z,8.88
2022-08-27T03:43:35.682Z,10.88
2022-08-27T03:46:03.200Z,9.32
2022-08-27T03:48:32.549Z,8.48
2022-08-27T03:51:06.779Z,8.07
2022-08-27T03:53:35.898Z,9.77
2022-08-27T03:56:04.600Z,11.77
2022-08-27T03:58:32.608Z,9.13
2022-08-27T04:01:00.014Z,7.18
2022-08-27T04:03:28.542Z,7.18
2022-08-27T04:05:58.507Z,8.25
2022-08-27T04:08:27.674Z,8.40
2022-08-27T04:10:55.490Z,7.72
2022-08-27T04:13:24.148Z,5.78
2022-08-27T04:15:55.211Z,5.75
2022-08-27T04:18:23.007Z,7.13
2022-08-27T04:20:55.138Z,5.10
2022-08-27T04:23:22.696Z,6.22
2022-08-27T04:25:50.565Z,6.10
2022-08-27T04:28:18.048Z,7.30
2022-08-27T04:30:47.259Z,5.32
2022-08-27T04:33:15.607Z,7.88
2022-08-27T04:35:43.691Z,9.23
2022-08-27T04:38:11.300Z,8.50
2022-08-27T04:40:58.034Z,7.22
2022-08-27T04:43:28.471Z,6.65
2022-08-27T04:45:56.811Z,7.63
2022-08-27T04:48:25.849Z,6.05
2022-08-27T04:50:53.385Z,8.85
2022-08-27T04:53:21.086Z,7.05
2022-08-27T04:55:53.786Z,5.75
2022-08-27T04:58:23.705Z,6.72
2022-08-27T05:00:56.542Z,7.60
2022-08-27T05:03:26.318Z,11.02
2022-08-27T05:06:05.003Z,13.75
2022-08-27T05:08:33.517Z,14.75
2022-08-27T05:11:02.453Z,13.73
2022-08-27T05:13:30.432Z,14.52
2022-08-27T05:16:09.882Z,13.95
2022-08-27T05:18:42.251Z,11.38
2022-08-27T05:21:25.778Z,10.63
2022-08-27T05:23:56.638Z,10.20
2022-08-27T05:26:24.271Z,13.27
2022-08-27T05:28:51.984Z,14.27
2022-08-27T05:31:22.112Z,17.92
2022-08-27T05:33:50.234Z,11.63
2022-08-27T05:36:31.304Z,13.00
2022-08-27T05:39:01.462Z,13.85
2022-08-27T05:41:34.097Z,11.40
2022-08-27T05:44:40.206Z,11.02
2022-08-27T05:46:59.514Z,12.65
2022-08-27T05:49:27.122Z,11.85
2022-08-27T05:51:54.478Z,14.10
2022-08-27T05:54:22.940Z,13.25
2022-08-27T05:56:50.683Z,12.75
2022-08-27T05:59:37.599Z,14.00
2022-08-27T06:02:06.351Z,12.77
2022-08-27T06:04:34.895Z,15.63
2022-08-27T06:07:02.337Z,11.38
2022-08-27T06:09:30.539Z,14.25
2022-08-27T06:12:00.408Z,13.60
2022-08-27T06:14:29.040Z,11.82
2022-08-27T06:16:57.027Z,7.68
2022-08-27T06:19:24.777Z,13.23
2022-08-27T06:22:00.237Z,10.13
2022-08-27T06:24:30.312Z,8.02
2022-08-27T06:26:57.703Z,10.68
2022-08-27T06:29:25.379Z,11.15
2022-08-27T06:31:55.167Z,8.63
2022-08-27T06:34:22.631Z,8.18
2022-08-27T06:36:50.313Z,9.95
2022-08-27T06:39:17.964Z,9.07
2022-08-27T06:41:46.463Z,9.50
2022-08-27T06:44:14.784Z,7.75
2022-08-27T06:46:43.775Z,6.50
2022-08-27T06:49:13.491Z,6.85
2022-08-27T06:51:45.991Z,6.35
2022-08-27T06:54:15.211Z,9.18
2022-08-27T06:56:44.579Z,8.93
2022-08-27T06:59:16.094Z,7.07
2022-08-27T07:01:49.608Z,8.30
2022-08-27T07:04:32.240Z,8.23
2022-08-27T07:07:02.702Z,10.73
2022-08-27T07:09:32.749Z,10.63
2022-08-27T07:12:01.534Z,10.23
2022-08-27T07:14:34.174Z,8.30
2022-08-27T07:17:05.582Z,14.15
2022-08-27T07:19:40.959Z,12.35
2022-08-27T07:22:09.068Z,12.02
2022-08-27T07:24:38.245Z,9.90
2022-08-27T07:27:06.967Z,13.30
2022-08-27T07:29:34.505Z,17.95
2022-08-27T07:32:02.412Z,16.25
2022-08-27T07:34:29.928Z,10.98
2022-08-27T07:36:57.386Z,11.57
2022-08-27T07:39:24.984Z,11.93
2022-08-27T07:42:11.134Z,24.27
2022-08-27T07:44:38.681Z,14.45
2022-08-27T07:47:08.516Z,14.82
2022-08-27T07:49:36.497Z,12.85
2022-08-27T07:52:05.503Z,14.13
2022-08-27T07:54:33.380Z,9.77
2022-08-27T07:57:00.789Z,12.85
2022-08-27T07:59:28.472Z,13.45
2022-08-27T08:01:57.299Z,10.90
2022-08-27T08:04:26.796Z,10.95
2022-08-27T08:06:56.025Z,14.52
2022-08-27T08:09:25.155Z,11.07
2022-08-27T08:11:54.014Z,12.10
2022-08-27T08:14:22.632Z,9.27
2022-08-27T08:16:50.617Z,9.20
2022-08-27T08:19:18.317Z,8.20
2022-08-27T08:21:45.981Z,7.78
2022-08-27T08:24:13.386Z,8.15
2022-08-27T08:26:42.250Z,10.07
2022-08-27T08:29:13.736Z,10.43
2022-08-27T08:31:46.870Z,9.38
2022-08-27T08:34:20.028Z,9.93
2022-08-27T08:36:54.482Z,10.68
2022-08-27T08:39:24.447Z,8.60
2022-08-27T08:42:00.399Z,7.85
2022-08-27T08:44:37.090Z,9.60
2022-08-27T08:47:33.981Z,13.65
2022-08-27T08:50:19.946Z,11.38
2022-08-27T08:53:21.612Z,9.77
2022-08-27T08:56:01.811Z,8.48
2022-08-27T08:58:59.909Z,8.48
2022-08-27T09:01:28.637Z,8.27
2022-08-27T09:04:11.249Z,9.55
2022-08-27T09:07:35.392Z,9.35
2022-08-27T09:10:45.245Z,10.95
2022-08-27T09:13:43.634Z,6.75
2022-08-27T09:16:11.710Z,6.55
2022-08-27T09:18:42.035Z,9.23
2022-08-27T09:21:35.906Z,8.30
2022-08-27T09:24:37.304Z,10.23
2022-08-27T09:27:05.276Z,10.18
2022-08-27T09:29:33.157Z,10.85
2022-08-27T09:32:08.839Z,9.02
2022-08-27T09:34:41.524Z,6.57
2022-08-27T09:37:11.468Z,7.47
2022-08-27T09:39:47.472Z,16.75
2022-08-27T09:42:46.043Z,10.55
2022-08-27T09:45:23.718Z,8.63
2022-08-27T09:48:16.352Z,9.07
2022-08-27T09:50:54.422Z,8.43
2022-08-27T09:53:29.256Z,9.23
2022-08-27T09:56:29.343Z,9.07
2022-08-27T09:59:19.418Z,9.10
2022-08-27T10:02:01.142Z,10.65
2022-08-27T10:04:50.404Z,10.60
2022-08-27T10:07:36.270Z,13.90
2022-08-27T10:10:13.391Z,9.10
2022-08-27T10:12:59.352Z,10.30
2022-08-27T10:15:43.301Z,8.60
2022-08-27T10:18:26.186Z,7.57
2022-08-27T10:21:04.917Z,8.13
2022-08-27T10:23:54.799Z,8.15
2022-08-27T10:26:40.679Z,8.63
2022-08-27T10:29:52.991Z,8.63
2022-08-27T10:32:58.548Z,8.55
2022-08-27T10:35:54.841Z,6.85
2022-08-27T10:38:46.604Z,10.10
2022-08-27T10:41:21.495Z,5.20
2022-08-27T10:44:19.477Z,4.68
2022-08-27T10:47:18.523Z,4.28
2022-08-27T10:50:50.713Z,4.60
2022-08-27T10:53:32.488Z,3.75
2022-08-27T10:56:45.361Z,4.93
2022-08-27T10:59:47.940Z,5.75
2022-08-27T11:02:49.237Z,4.03
2022-08-27T11:05:24.349Z,4.40
2022-08-27T11:08:23.228Z,2.95
2022-08-27T11:14:53.200Z,5.78
2022-08-27T11:17:32.133Z,2.83
2022-08-27T11:20:14.095Z,3.75
2022-08-27T11:23:04.485Z,4.38
2022-08-27T11:25:59.107Z,4.07
2022-08-27T11:28:47.483Z,4.32
2022-08-27T11:31:36.856Z,7.32
2022-08-27T11:34:20.555Z,4.70
2022-08-27T11:37:34.118Z,5.53
2022-08-27T11:40:25.559Z,3.72
2022-08-27T11:43:01.659Z,3.35
2022-08-27T11:45:53.254Z,2.58
2022-08-27T11:48:32.355Z,3.78
2022-08-27T11:51:16.001Z,3.40
2022-08-27T11:54:01.941Z,2.83
2022-08-27T11:56:37.158Z,2.50
2022-08-27T11:59:30.297Z,2.38
2022-08-27T12:02:20.682Z,2.58
2022-08-27T12:04:49.942Z,3.00
2022-08-27T12:07:17.616Z,3.05
2022-08-27T12:10:17.471Z,2.63
2022-08-27T12:12:54.808Z,3.70
2022-08-27T12:15:50.422Z,3.42
2022-08-27T12:19:04.244Z,2.75
2022-08-27T12:22:11.202Z,3.33
2022-08-27T12:24:50.810Z,2.78
2022-08-27T12:27:27.360Z,2.75
2022-08-27T12:30:07.010Z,3.10
2022-08-27T12:32:44.566Z,3.40
2022-08-27T12:35:31.288Z,3.08
2022-08-27T12:38:28.479Z,2.80
2022-08-27T12:41:09.388Z,3.13
2022-08-27T12:43:43.471Z,3.35
2022-08-27T12:46:19.199Z,2.78
2022-08-27T12:48:57.281Z,2.95
2022-08-27T12:51:36.306Z,3.17
2022-08-27T12:54:18.481Z,4.45
2022-08-27T12:57:12.206Z,2.83
2022-08-27T13:00:12.602Z,2.70
2022-08-27T13:03:07.258Z,2.90
2022-08-27T13:05:47.554Z,3.10
2022-08-27T13:08:27.068Z,3.88
2022-08-27T13:10:54.567Z,3.10
2022-08-27T13:13:27.383Z,4.20
2022-08-27T13:16:01.498Z,3.83
2022-08-27T13:18:30.490Z,3.95
2022-08-27T13:21:25.199Z,3.45
2022-08-27T13:24:06.836Z,4.15
2022-08-27T13:26:38.815Z,3.53
2022-08-27T13:29:08.833Z,4.93
2022-08-27T13:31:37.285Z,5.65
2022-08-27T13:34:06.915Z,6.65
2022-08-27T13:36:53.347Z,5.13
2022-08-27T13:39:23.162Z,4.82
2022-08-27T13:41:51.273Z,3.40
2022-08-27T13:44:34.649Z,4.32
2022-08-27T13:47:11.583Z,7.70
2022-08-27T13:49:40.115Z,5.97
2022-08-27T13:52:29.962Z,4.97
2022-08-27T13:55:16.837Z,7.53
2022-08-27T13:57:52.114Z,6.90
2022-08-27T14:00:34.790Z,5.45
2022-08-27T14:03:02.875Z,4.03
2022-08-27T14:05:34.163Z,5.00
2022-08-27T14:08:16.193Z,5.85
2022-08-27T14:11:02.859Z,4.50
2022-08-27T14:13:46.997Z,5.57
2022-08-27T14:16:34.503Z,5.38
2022-08-27T14:19:25.963Z,4.88
2022-08-27T14:21:54.401Z,5.32
2022-08-27T14:24:22.528Z,6.45
2022-08-27T14:26:53.269Z,4.72
2022-08-27T14:29:22.263Z,5.63
2022-08-27T14:31:49.872Z,5.40
2022-08-27T14:34:17.468Z,3.90
2022-08-27T14:36:45.883Z,5.05
2022-08-27T14:39:13.877Z,5.75
2022-08-27T14:41:41.200Z,9.48
2022-08-27T14:44:09.336Z,3.97
2022-08-27T14:46:41.578Z,6.43
2022-08-27T14:49:20.678Z,5.13
2022-08-27T14:51:49.334Z,4.20
2022-08-27T14:54:16.933Z,6.00
2022-08-27T14:56:44.766Z,5.57
2022-08-27T14:59:12.378Z,6.90
2022-08-27T15:01:40.443Z,6.00
2022-08-27T15:04:08.462Z,10.05
2022-08-27T15:06:35.744Z,6.68
2022-08-27T15:09:04.292Z,8.50
2022-08-27T15:11:35.776Z,7.20
2022-08-27T15:14:30.046Z,4.78
2022-08-27T15:16:59.515Z,7.70
2022-08-27T15:19:30.009Z,6.57
2022-08-27T15:22:16.830Z,6.82
2022-08-27T15:24:50.986Z,7.72
2022-08-27T15:27:18.537Z,8.48
2022-08-27T15:29:50.225Z,7.68
2022-08-27T15:32:30.206Z,6.15
2022-08-27T15:35:00.757Z,9.85
2022-08-27T15:37:28.585Z,7.75
2022-08-27T15:39:56.071Z,6.57
2022-08-27T15:42:24.830Z,6.97
2022-08-27T15:44:55.705Z,8.43
2022-08-27T15:47:24.910Z,17.02
2022-08-27T15:49:52.922Z,14.63
2022-08-27T15:52:22.563Z,16.13
2022-08-27T15:54:51.581Z,8.20
2022-08-27T15:57:20.981Z,12.02
2022-08-27T15:59:49.633Z,6.68
2022-08-27T16:02:22.567Z,7.75
2022-08-27T16:04:51.160Z,6.82
2022-08-27T16:07:20.150Z,7.47
2022-08-27T16:09:49.159Z,10.55
2022-08-27T16:12:26.980Z,17.92
2022-08-27T16:14:56.433Z,12.88
2022-08-27T16:17:26.639Z,6.40
2022-08-27T16:19:54.550Z,7.07
2022-08-27T16:22:22.112Z,7.78
2022-08-27T16:24:49.880Z,8.75
2022-08-27T16:27:17.264Z,7.95
2022-08-27T16:29:44.876Z,7.88
2022-08-27T16:32:18.954Z,10.30
2022-08-27T16:34:55.803Z,11.10
2022-08-27T16:37:46.016Z,9.82
2022-08-27T16:40:15.408Z,10.55
2022-08-27T16:42:50.934Z,14.65
2022-08-27T16:45:22.801Z,9.55
2022-08-27T16:48:09.147Z,7.38
2022-08-27T16:50:38.047Z,10.15
2022-08-27T16:53:15.063Z,8.38
2022-08-27T16:55:45.143Z,9.85
2022-08-27T16:58:26.865Z,10.90
2022-08-27T17:01:01.125Z,10.00
2022-08-27T17:03:30.903Z,11.48
2022-08-27T17:05:59.129Z,8.38
2022-08-27T17:08:30.444Z,6.60
2022-08-27T17:10:58.806Z,7.22
2022-08-27T17:13:32.799Z,8.73
2022-08-27T17:16:01.842Z,12.55
2022-08-27T17:18:30.084Z,7.63
2022-08-27T17:20:59.495Z,10.68
2022-08-27T17:23:47.988Z,9.32
2022-08-27T17:26:18.687Z,9.18
2022-08-27T17:28:47.313Z,10.23
2022-08-27T17:31:28.081Z,8.18
2022-08-27T17:33:59.784Z,11.25
2022-08-27T17:36:30.929Z,11.57
2022-08-27T17:38:59.134Z,9.43
2022-08-27T17:41:34.458Z,11.57
2022-08-27T17:44:20.278Z,9.30
2022-08-27T17:46:49.548Z,11.57
2022-08-27T17:49:18.997Z,8.00
2022-08-27T17:51:48.659Z,11.25
2022-08-27T17:54:34.656Z,10.50
2022-08-27T17:57:16.032Z,11.55
2022-08-27T17:59:44.650Z,12.68
2022-08-27T18:02:34.199Z,14.63
2022-08-27T18:05:02.233Z,13.07
2022-08-27T18:07:29.873Z,19.60
2022-08-27T18:09:57.372Z,24.35
2022-08-27T18:12:27.429Z,27.10
2022-08-27T18:15:09.086Z,24.58
2022-08-27T18:17:37.112Z,28.13
2022-08-27T18:20:08.264Z,25.02
2022-08-27T18:22:40.651Z,23.55
2022-08-27T18:25:09.643Z,19.65
2022-08-27T18:27:41.604Z,18.50
2022-08-27T18:30:12.127Z,18.55
2022-08-27T18:32:40.791Z,16.27
2022-08-27T18:35:33.086Z,16.80
2022-08-27T18:38:01.798Z,17.73
2022-08-27T18:40:41.075Z,19.30
2022-08-27T18:43:08.955Z,21.65
2022-08-27T18:45:37.892Z,19.52
2022-08-27T18:48:17.989Z,17.83
2022-08-27T18:50:54.191Z,14.48
2022-08-27T18:53:22.289Z,13.10
2022-08-27T18:55:52.031Z,13.43
2022-08-27T18:58:22.471Z,10.52
2022-08-27T19:00:55.830Z,10.82
2022-08-27T19:03:33.559Z,8.45
2022-08-27T19:06:02.314Z,9.93
2022-08-27T19:08:38.966Z,9.55
2022-08-27T19:11:06.583Z,7.93
2022-08-27T19:13:34.407Z,9.63
2022-08-27T19:16:17.697Z,10.95
2022-08-27T19:18:47.011Z,14.02
2022-08-27T19:21:15.342Z,12.20
2022-08-27T19:23:43.615Z,13.07
2022-08-27T19:26:23.670Z,12.68
2022-08-27T19:28:52.094Z,13.93
2022-08-27T19:31:19.922Z,15.85
2022-08-27T19:33:47.573Z,12.85
2022-08-27T19:36:18.980Z,12.45
2022-08-27T19:38:50.580Z,15.30
2022-08-27T19:41:19.195Z,13.35
2022-08-27T19:43:46.601Z,13.32
2022-08-27T19:46:21.174Z,13.85
2022-08-27T19:48:48.966Z,14.32
2022-08-27T19:51:16.463Z,11.68
2022-08-27T19:53:43.905Z,13.90
2022-08-27T19:56:14.053Z,13.55
2022-08-27T19:58:43.524Z,11.57
2022-08-27T20:01:12.317Z,12.85
2022-08-27T20:03:41.126Z,11.55
2022-08-27T20:06:09.129Z,12.70
2022-08-27T20:08:36.525Z,11.63
2022-08-27T20:11:04.145Z,11.40
2022-08-27T20:13:33.309Z,11.80
2022-08-27T20:16:03.739Z,12.07
2022-08-27T20:18:32.366Z,11.07
2022-08-27T20:20:59.877Z,13.38
2022-08-27T20:23:34.100Z,14.90
2022-08-27T20:26:01.727Z,11.13
2022-08-27T20:28:44.579Z,9.57
2022-08-27T20:31:12.792Z,9.48
2022-08-27T20:33:40.272Z,12.30
2022-08-27T20:36:08.774Z,13.02
2022-08-27T20:38:36.846Z,10.90
2022-08-27T20:41:06.661Z,8.80
2022-08-27T20:43:35.717Z,11.13
2022-08-27T20:46:04.467Z,11.57
2022-08-27T20:48:32.179Z,10.15
2022-08-27T20:50:59.737Z,15.18
2022-08-27T20:53:27.509Z,9.05
2022-08-27T20:55:56.878Z,11.90
2022-08-27T20:58:45.194Z,9.48
2022-08-27T21:01:13.211Z,9.20
2022-08-27T21:03:41.129Z,9.63
2022-08-27T21:06:09.289Z,9.23
2022-08-27T21:08:39.498Z,8.05
2022-08-27T21:11:16.019Z,10.35
2022-08-27T21:13:55.835Z,12.57
2022-08-27T21:16:25.459Z,7.47
2022-08-27T21:18:54.090Z,6.78
2022-08-27T21:21:22.355Z,9.10
2022-08-27T21:23:50.041Z,11.52
2022-08-27T21:26:17.791Z,10.95
2022-08-27T21:28:45.275Z,14.73
2022-08-27T21:31:13.576Z,11.80
2022-08-27T21:33:41.591Z,10.85
2022-08-27T21:36:12.116Z,12.10
2022-08-27T21:38:41.404Z,11.90
2022-08-27T21:41:09.938Z,9.48
2022-08-27T21:43:37.658Z,11.40
2022-08-27T21:46:06.384Z,9.50
2022-08-27T21:48:34.802Z,11.63
2022-08-27T21:51:10.211Z,9.63
2022-08-27T21:53:38.388Z,9.10
2022-08-27T21:56:07.587Z,7.90
2022-08-27T21:58:35.812Z,9.32
2022-08-27T22:01:05.779Z,6.88
2022-08-27T22:03:35.761Z,8.10
2022-08-27T22:06:07.372Z,6.97
2022-08-27T22:08:35.167Z,9.45
2022-08-27T22:11:03.180Z,8.00
2022-08-27T22:13:31.662Z,10.00
2022-08-27T22:15:59.291Z,8.73
2022-08-27T22:18:27.566Z,10.10
2022-08-27T22:20:57.524Z,10.77
2022-08-27T22:23:27.001Z,10.38
2022-08-27T22:25:54.300Z,7.30
2022-08-27T22:28:21.768Z,10.68
2022-08-27T22:30:49.367Z,9.63
2022-08-27T22:33:17.886Z,9.45
2022-08-27T22:35:45.336Z,7.20
2022-08-27T22:38:13.340Z,6.57
2022-08-27T22:40:41.023Z,8.98
2022-08-27T22:43:09.176Z,8.43
2022-08-27T22:45:36.796Z,11.15
2022-08-27T22:48:04.627Z,9.82
2022-08-27T22:50:32.132Z,12.75
2022-08-27T22:52:59.604Z,11.80
2022-08-27T22:55:27.165Z,13.40
2022-08-27T22:57:55.876Z,12.13
2022-08-27T23:00:35.698Z,15.48
2022-08-27T23:03:06.396Z,15.35
2022-08-27T23:05:41.783Z,14.25
2022-08-27T23:08:13.453Z,13.77
2022-08-27T23:10:43.424Z,15.93
2022-08-27T23:13:12.465Z,14.98
2022-08-27T23:15:41.389Z,13.57
2022-08-27T23:18:09.102Z,13.95
2022-08-27T23:20:36.710Z,11.73
2022-08-27T23:23:04.435Z,14.27
2022-08-27T23:25:52.196Z,14.40
2022-08-27T23:28:20.232Z,14.30
2022-08-27T23:30:47.969Z,13.05
2022-08-27T23:33:15.808Z,12.82
2022-08-27T23:35:48.208Z,13.32
2022-08-27T23:38:19.008Z,9.70
2022-08-27T23:40:48.634Z,11.15
2022-08-27T23:43:17.590Z,11.82
2022-08-27T23:45:45.148Z,8.18
2022-08-27T23:48:13.220Z,9.25
2022-08-27T23:50:41.650Z,9.95
2022-08-27T23:53:12.187Z,12.23
2022-08-27T23:55:41.108Z,11.35
2022-08-27T23:58:10.670Z,8.60
